Milroy, Minnesota
Current Conditions -  °F | °C
As of 6:13 AM on Saturday 25 Oct 2014 (Local Time) from KTKC Reporting Station
Clear Clear  
Wind Chill: 53°   Ceiling: Unl
Heat Index: 53°   Visibility: 10mi
Dew Point: 36°   Wind: 6mph
Humidity: 52%   Direction: 300°WNW
Pressure: 30.07"   Gusts: NA
Location:  44.42°N, 95.55°W
Report Text: KTKC 251113Z AUTO 30005KT 10SM CLR 12/02 A3007 RMK AO2 T01150020
Loading
Personal Weather Stations






























Interactive Weather Map
Tropical Storm Tracking
New forecast layout! Learn more

10-Day Weather Forecast

Advertisements
Track Severe Weather on mobile